Bruno, Minnesota
Current Conditions -  °F | °C
As of 6:32 AM on Saturday 01 Nov 2014 (Local Time) from KMZH Reporting Station
Clear Clear  
Wind Chill: 18°   Ceiling: Unl
Heat Index: 18°   Visibility: 10mi
Dew Point: 16°   Wind: 0mph
Humidity: 93%   Direction: NA
Pressure: 30.4"   Gusts: NA
Location:  46.28°N, 92.66°W
Report Text: KMZH 011132Z AUTO 00000KT 10SM CLR M08/M09 A3040 RMK AO2
Loading
Personal Weather Stations






























Interactive Weather Map
Tropical Storm Tracking
New forecast layout! Learn more

10-Day Weather Forecast

Advertisements
Track Severe Weather on mobile